Time,TemperatureF,DewpointF,PressureIn,WindDirection,WindDirectionDegrees,WindSpeedMPH,WindSpeedGustMPH,Humidity,HourlyPrecipIn,Conditions,Clouds,dailyrainin,SolarRadiationWatts/m^2,SoftwareType,DateUTC
2013-09-16 00:02:00,61.0,52.0,-100.00,West,273,0.0,0.0,72,0.00,,,0.00,0.000000,,2013-09-16 07:02:00,
2013-09-16 00:22:00,61.0,52.0,-100.00,West,273,0.0,0.0,72,0.00,,,0.00,0.000000,,2013-09-16 07:22:00,
2013-09-16 00:32:00,61.0,52.0,-100.00,West,273,0.0,0.0,72,0.00,,,0.00,0.000000,,2013-09-16 07:32:00,
2013-09-16 00:43:00,61.0,52.0,-100.00,West,273,0.0,0.0,72,0.00,,,0.00,0.000000,,2013-09-16 07:43:00,
2013-09-16 00:52:00,61.0,52.0,-100.00,West,273,0.0,0.0,72,0.00,,,0.00,0.000000,,2013-09-16 07:52:00,
2013-09-16 01:22:00,60.0,53.0,-100.00,West,273,0.0,0.0,79,0.00,,,0.00,0.000000,,2013-09-16 08:22:00,
2013-09-16 01:32:00,60.0,53.0,-100.00,West,273,0.0,0.0,79,0.00,,,0.00,0.000000,,2013-09-16 08:32:00,
2013-09-16 01:42:00,60.0,53.0,-100.00,West,273,0.0,0.0,79,0.00,,,0.00,0.000000,,2013-09-16 08:42:00,
2013-09-16 01:52:00,60.0,53.0,-100.00,West,273,0.0,0.0,79,0.00,,,0.00,0.000000,,2013-09-16 08:52:00,
2013-09-16 02:01:00,60.0,53.0,-100.00,West,273,0.0,0.0,79,0.00,,,0.00,0.000000,,2013-09-16 09:01:00,
2013-09-16 02:02:00,60.0,53.0,-100.00,West,278,0.0,0.0,79,0.00,,,0.00,0.000000,,2013-09-16 09:02:00,
2013-09-16 02:22:00,60.0,53.0,-100.00,West,278,0.0,0.0,79,0.00,,,0.00,0.000000,,2013-09-16 09:22:00,
2013-09-16 02:34:00,60.0,53.0,-100.00,West,278,0.0,0.0,79,0.00,,,0.00,0.000000,,2013-09-16 09:34:00,
2013-09-16 02:43:00,60.0,53.0,-100.00,West,278,0.0,0.0,79,0.00,,,0.00,0.000000,,2013-09-16 09:43:00,
2013-09-16 02:53:00,60.0,53.0,-100.00,West,278,0.0,0.0,79,0.00,,,0.00,0.000000,,2013-09-16 09:53:00,
2013-09-16 03:02:00,60.0,53.0,-100.00,West,279,0.0,0.0,79,0.00,,,0.00,0.000000,,2013-09-16 10:02:00,
2013-09-16 03:42:00,60.0,53.0,-100.00,West,279,0.0,0.0,79,0.00,,,0.00,0.000000,,2013-09-16 10:42:00,
2013-09-16 03:53:00,60.0,53.0,-100.00,West,279,0.0,0.0,79,0.00,,,0.00,0.000000,,2013-09-16 10:53:00,
2013-09-16 04:42:00,62.0,52.0,-100.00,West,273,0.0,0.0,71,0.00,,,0.00,0.000000,,2013-09-16 11:42:00,
2013-09-16 04:52:00,62.0,52.0,-100.00,West,273,0.0,0.0,71,0.00,,,0.00,0.000000,,2013-09-16 11:52:00,
2013-09-16 05:01:00,62.0,52.0,-100.00,West,273,0.0,0.0,71,0.00,,,0.00,0.000000,,2013-09-16 12:01:00,
2013-09-16 05:02:00,60.0,52.0,-100.00,West,269,0.0,0.0,74,0.00,,,0.00,0.000000,,2013-09-16 12:02:00,
2013-09-16 05:42:00,60.0,52.0,-100.00,West,269,0.0,0.0,74,0.00,,,0.00,0.000000,,2013-09-16 12:42:00,
2013-09-16 05:52:00,60.0,52.0,-100.00,West,269,0.0,0.0,74,0.00,,,0.00,0.000000,,2013-09-16 12:52:00,
2013-09-16 06:02:00,61.0,50.0,-100.00,WNW,285,0.0,0.0,67,0.00,,,0.00,0.000000,,2013-09-16 13:02:00,
2013-09-16 06:42:00,61.0,50.0,-100.00,WNW,285,0.0,0.0,67,0.00,,,0.00,0.000000,,2013-09-16 13:42:00,
2013-09-16 06:52:00,61.0,50.0,-100.00,WNW,285,0.0,0.0,67,0.00,,,0.00,0.000000,,2013-09-16 13:52:00,
2013-09-16 07:22:00,62.0,48.0,-100.00,WNW,299,0.0,0.0,61,0.00,,,0.00,2.000000,,2013-09-16 14:22:00,
2013-09-16 07:32:00,62.0,48.0,-100.00,WNW,299,0.0,0.0,61,0.00,,,0.00,2.000000,,2013-09-16 14:32:00,
2013-09-16 07:42:00,62.0,48.0,-100.00,WNW,299,0.0,0.0,61,0.00,,,0.00,2.000000,,2013-09-16 14:42:00,
2013-09-16 07:52:00,62.0,48.0,-100.00,WNW,299,0.0,0.0,61,0.00,,,0.00,2.000000,,2013-09-16 14:52:00,
2013-09-16 08:01:00,62.0,48.0,-100.00,WNW,299,0.0,0.0,61,0.00,,,0.00,2.000000,,2013-09-16 15:01:00,
2013-09-16 08:02:00,66.0,49.0,-100.00,WNW,298,0.0,0.0,55,0.00,,,0.00,96.000000,,2013-09-16 15:02:00,
2013-09-16 08:43:00,66.0,49.0,-100.00,WNW,298,0.0,0.0,55,0.00,,,0.00,96.000000,,2013-09-16 15:43:00,
2013-09-16 08:53:00,66.0,49.0,-100.00,WNW,298,0.0,0.0,55,0.00,,,0.00,96.000000,,2013-09-16 15:53:00,
2013-09-16 11:42:00,72.0,54.0,-100.00,ENE,66,4.0,9.0,54,-99.99,,,0.00,649.000000,,2013-09-16 18:42:00,
2013-09-16 11:52:00,72.0,54.0,-100.00,ENE,66,4.0,9.0,54,-99.99,,,0.00,649.000000,,2013-09-16 18:52:00,
2013-09-16 12:01:00,72.0,54.0,-100.00,ENE,66,4.0,9.0,54,-99.99,,,0.00,649.000000,,2013-09-16 19:01:00,
2013-09-16 12:02:00,75.0,53.0,-100.00,ENE,74,5.0,10.0,46,0.00,,,0.00,770.000000,,2013-09-16 19:02:00,
2013-09-16 12:22:00,75.0,53.0,-100.00,ENE,74,5.0,10.0,46,0.00,,,0.00,770.000000,,2013-09-16 19:22:00,
2013-09-16 12:32:00,75.0,53.0,-100.00,ENE,74,5.0,10.0,46,0.00,,,0.00,770.000000,,2013-09-16 19:32:00,
2013-09-16 12:42:00,75.0,53.0,-100.00,ENE,74,5.0,10.0,46,0.00,,,0.00,770.000000,,2013-09-16 19:42:00,
2013-09-16 12:53:00,75.0,53.0,-100.00,ENE,74,5.0,10.0,46,0.00,,,0.00,770.000000,,2013-09-16 19:53:00,
2013-09-16 13:02:00,78.0,53.0,-100.00,NE,52,4.0,11.0,42,0.00,,,0.00,837.000000,,2013-09-16 20:02:00,
2013-09-16 13:22:00,78.0,53.0,-100.00,NE,52,4.0,11.0,42,0.00,,,0.00,837.000000,,2013-09-16 20:22:00,
2013-09-16 13:32:00,78.0,53.0,-100.00,NE,52,4.0,11.0,42,0.00,,,0.00,837.000000,,2013-09-16 20:32:00,
2013-09-16 13:43:00,78.0,53.0,-100.00,NE,52,4.0,11.0,42,0.00,,,0.00,837.000000,,2013-09-16 20:43:00,
2013-09-16 13:52:00,78.0,53.0,-100.00,NE,52,4.0,11.0,42,0.00,,,0.00,837.000000,,2013-09-16 20:52:00,
2013-09-16 14:02:00,81.0,48.0,-100.00,West,260,6.0,11.0,32,0.00,,,0.00,849.000000,,2013-09-16 21:02:00,
2013-09-16 14:22:00,81.0,48.0,-100.00,West,260,6.0,11.0,32,0.00,,,0.00,849.000000,,2013-09-16 21:22:00,
2013-09-16 14:34:00,81.0,48.0,-100.00,West,260,6.0,11.0,32,0.00,,,0.00,849.000000,,2013-09-16 21:34:00,
2013-09-16 14:44:00,81.0,48.0,-100.00,West,260,6.0,11.0,32,0.00,,,0.00,849.000000,,2013-09-16 21:44:00,
2013-09-16 14:56:00,81.0,48.0,-100.00,West,260,6.0,11.0,32,0.00,,,0.00,849.000000,,2013-09-16 21:56:00,
2013-09-16 15:02:00,82.0,48.0,-100.00,West,263,6.0,13.0,31,0.00,,,0.00,793.000000,,2013-09-16 22:02:00,
2013-09-16 15:43:00,82.0,48.0,-100.00,West,263,6.0,13.0,31,0.00,,,0.00,793.000000,,2013-09-16 22:43:00,
2013-09-16 15:53:00,82.0,48.0,-100.00,West,263,6.0,13.0,31,0.00,,,0.00,793.000000,,2013-09-16 22:53:00,
2013-09-16 16:02:00,80.0,47.0,-100.00,WSW,258,8.0,17.0,32,0.00,,,0.00,676.000000,,2013-09-16 23:02:00,
2013-09-16 16:22:00,80.0,47.0,-100.00,WSW,258,8.0,17.0,32,0.00,,,0.00,676.000000,,2013-09-16 23:22:00,
2013-09-16 16:34:00,80.0,47.0,-100.00,WSW,258,8.0,17.0,32,0.00,,,0.00,676.000000,,2013-09-16 23:34:00,
2013-09-16 16:43:00,80.0,47.0,-100.00,WSW,258,8.0,17.0,32,0.00,,,0.00,676.000000,,2013-09-16 23:43:00,
2013-09-16 16:52:00,80.0,47.0,-100.00,WSW,258,8.0,17.0,32,0.00,,,0.00,676.000000,,2013-09-16 23:52:00,
2013-09-16 17:02:00,76.0,51.0,-100.00,WSW,257,9.0,19.0,42,0.00,,,0.00,511.000000,,2013-09-17 00:02:00,
2013-09-16 17:22:00,76.0,51.0,-100.00,WSW,257,9.0,19.0,42,0.00,,,0.00,511.000000,,2013-09-17 00:22:00,
2013-09-16 17:32:00,76.0,51.0,-100.00,WSW,257,9.0,19.0,42,0.00,,,0.00,511.000000,,2013-09-17 00:32:00,
2013-09-16 17:42:00,76.0,51.0,-100.00,WSW,257,9.0,19.0,42,0.00,,,0.00,511.000000,,2013-09-17 00:42:00,
2013-09-16 17:52:00,76.0,51.0,-100.00,WSW,257,9.0,19.0,42,0.00,,,0.00,511.000000,,2013-09-17 00:52:00,
2013-09-16 18:02:00,71.0,51.0,-100.00,West,265,12.0,19.0,50,0.00,,,0.00,318.000000,,2013-09-17 01:02:00,
2013-09-16 18:42:00,71.0,51.0,-100.00,West,265,12.0,19.0,50,0.00,,,0.00,318.000000,,2013-09-17 01:42:00,
2013-09-16 18:52:00,71.0,51.0,-100.00,West,265,12.0,19.0,50,0.00,,,0.00,318.000000,,2013-09-17 01:52:00,
2013-09-16 19:22:00,63.0,51.0,-100.00,West,260,15.0,26.0,65,0.00,,,0.00,117.000000,,2013-09-17 02:22:00,
2013-09-16 19:32:00,63.0,51.0,-100.00,West,260,15.0,26.0,65,0.00,,,0.00,117.000000,,2013-09-17 02:32:00,
2013-09-16 19:42:00,63.0,51.0,-100.00,West,260,15.0,26.0,65,0.00,,,0.00,117.000000,,2013-09-17 02:42:00,
2013-09-16 19:52:00,63.0,51.0,-100.00,West,260,15.0,26.0,65,0.00,,,0.00,117.000000,,2013-09-17 02:52:00,
2013-09-16 20:01:00,63.0,51.0,-100.00,West,260,15.0,26.0,65,0.00,,,0.00,117.000000,,2013-09-17 03:01:00,
2013-09-16 20:02:00,61.0,50.0,-100.00,WSW,250,11.0,23.0,68,0.00,,,0.00,2.000000,,2013-09-17 03:02:00,
2013-09-16 20:45:00,61.0,50.0,-100.00,WSW,250,11.0,23.0,68,0.00,,,0.00,2.000000,,2013-09-17 03:45:00,
2013-09-16 20:54:00,61.0,50.0,-100.00,WSW,250,11.0,23.0,68,0.00,,,0.00,2.000000,,2013-09-17 03:54:00,
2013-09-16 21:02:00,57.0,52.0,-100.00,WSW,250,15.0,25.0,83,0.00,,,0.00,0.000000,,2013-09-17 04:02:00,
2013-09-16 21:24:00,57.0,52.0,-100.00,WSW,250,15.0,25.0,83,0.00,,,0.00,0.000000,,2013-09-17 04:24:00,
2013-09-16 21:34:00,57.0,52.0,-100.00,WSW,250,15.0,25.0,83,0.00,,,0.00,0.000000,,2013-09-17 04:34:00,
2013-09-16 21:44:00,57.0,52.0,-100.00,WSW,250,15.0,25.0,83,0.00,,,0.00,0.000000,,2013-09-17 04:44:00,
2013-09-16 21:54:00,57.0,52.0,-100.00,WSW,250,15.0,25.0,83,0.00,,,0.00,0.000000,,2013-09-17 04:54:00,
2013-09-16 22:02:00,56.0,51.0,-100.00,WSW,252,14.0,23.0,83,0.00,,,0.00,0.000000,,2013-09-17 05:02:00,
2013-09-16 22:23:00,56.0,51.0,-100.00,WSW,252,14.0,23.0,83,0.00,,,0.00,0.000000,,2013-09-17 05:23:00,
2013-09-16 22:34:00,56.0,51.0,-100.00,WSW,252,14.0,23.0,83,0.00,,,0.00,0.000000,,2013-09-17 05:34:00,
2013-09-16 22:42:00,56.0,51.0,-100.00,WSW,252,14.0,23.0,83,0.00,,,0.00,0.000000,,2013-09-17 05:42:00,
2013-09-16 22:52:00,56.0,51.0,-100.00,WSW,252,14.0,23.0,83,0.00,,,0.00,0.000000,,2013-09-17 05:52:00,
2013-09-16 23:02:00,53.0,52.0,-100.00,WSW,251,13.0,22.0,97,0.00,,,0.00,0.000000,,2013-09-17 06:02:00,
2013-09-16 23:22:00,53.0,52.0,-100.00,WSW,251,13.0,22.0,97,0.00,,,0.00,0.000000,,2013-09-17 06:22:00,
2013-09-16 23:32:00,53.0,52.0,-100.00,WSW,251,13.0,22.0,97,0.00,,,0.00,0.000000,,2013-09-17 06:32:00,
2013-09-16 23:42:00,53.0,52.0,-100.00,WSW,251,13.0,22.0,97,0.00,,,0.00,0.000000,,2013-09-17 06:42:00,
2013-09-16 23:52:00,53.0,52.0,-100.00,WSW,251,13.0,22.0,97,0.00,,,0.00,0.000000,,2013-09-17 06:52:00,